createdAt,value
2023-05-08T00:01:58.791Z,102031.00
2023-05-08T00:07:01.647Z,102028.53
2023-05-08T00:12:04.999Z,102034.88
2023-05-08T00:17:09.298Z,102032.22
2023-05-08T00:22:12.177Z,102029.63
2023-05-08T00:27:15.110Z,102032.22
2023-05-08T00:32:20.573Z,102031.31
2023-05-08T00:37:23.457Z,102032.31
2023-05-08T00:42:27.009Z,102034.13
2023-05-08T00:47:31.459Z,102029.81
2023-05-08T00:52:34.807Z,102030.84
2023-05-08T00:57:37.960Z,102037.06
2023-05-08T01:02:42.396Z,102033.72
2023-05-08T01:07:45.551Z,102038.25
2023-05-08T01:12:57.552Z,102046.34
2023-05-08T01:18:08.775Z,102043.00
2023-05-08T01:24:02.337Z,102040.31
2023-05-08T01:29:34.875Z,102037.00
2023-05-08T01:34:43.771Z,102033.59
2023-05-08T01:39:49.215Z,102031.09
2023-05-08T01:44:56.115Z,102031.19
2023-05-08T01:50:05.555Z,102026.84
2023-05-08T01:55:11.978Z,102022.47
2023-05-08T02:00:16.843Z,102040.00
2023-05-08T02:05:22.596Z,102044.44
2023-05-08T02:10:25.926Z,102048.03
2023-05-08T02:15:30.517Z,102049.88
2023-05-08T02:20:34.813Z,102062.28
2023-05-08T02:25:37.715Z,102062.41
2023-05-08T02:30:41.549Z,102061.47
2023-05-08T02:35:47.164Z,102064.09
2023-05-08T02:40:52.533Z,102059.59
2023-05-08T02:46:08.538Z,102050.69
2023-05-08T02:51:21.185Z,102040.09
2023-05-08T02:56:33.002Z,102045.31
2023-05-08T03:01:43.407Z,102040.00
2023-05-08T03:06:48.980Z,102029.41
2023-05-08T03:11:59.232Z,102030.19
2023-05-08T03:17:03.018Z,102015.22
2023-05-08T03:22:08.375Z,102021.25
2023-05-08T03:27:11.473Z,102015.91
2023-05-08T03:32:14.889Z,102012.34
2023-05-08T03:37:19.623Z,102022.75
2023-05-08T03:42:23.653Z,102021.75
2023-05-08T03:47:26.985Z,102019.91
2023-05-08T03:52:31.584Z,102022.44
2023-05-08T03:57:37.300Z,102026.81
2023-05-08T04:02:48.635Z,102034.63
2023-05-08T04:07:57.132Z,102038.91
2023-05-08T04:13:05.706Z,102040.97
2023-05-08T04:18:12.160Z,102044.78
2023-05-08T04:23:18.995Z,102051.84
2023-05-08T04:28:23.035Z,102053.53
2023-05-08T04:33:26.617Z,102058.78
2023-05-08T04:38:31.072Z,102054.31
2023-05-08T04:43:34.259Z,102060.38
2023-05-08T04:48:37.647Z,102063.75
2023-05-08T04:53:42.181Z,102063.63
2023-05-08T04:58:45.230Z,102072.19
2023-05-08T05:03:48.305Z,102079.88
2023-05-08T05:08:52.600Z,102084.09
2023-05-08T05:13:55.950Z,102091.66
2023-05-08T05:18:59.255Z,102091.66
2023-05-08T05:24:03.564Z,102089.88
2023-05-08T05:29:06.495Z,102097.63
2023-05-08T05:34:10.418Z,102098.34
2023-05-08T05:39:15.456Z,102099.06
2023-05-08T05:44:19.217Z,102102.53
2023-05-08T05:49:22.446Z,102106.78
2023-05-08T05:54:27.144Z,102106.50
2023-05-08T05:59:30.922Z,102106.06
2023-05-08T06:04:33.890Z,102101.59
2023-05-08T06:09:38.294Z,102106.63
2023-05-08T06:14:41.186Z,102110.53
2023-05-08T06:19:44.764Z,102115.13
2023-05-08T06:24:48.893Z,102117.41
2023-05-08T06:29:53.370Z,102113.16
2023-05-08T06:34:56.577Z,102121.72
2023-05-08T06:40:11.743Z,102121.41
2023-05-08T06:45:16.198Z,102127.38
2023-05-08T06:50:19.584Z,102115.72
2023-05-08T06:55:23.959Z,102122.22
2023-05-08T07:00:27.206Z,102123.72
2023-05-08T07:05:30.057Z,102124.41
2023-05-08T07:10:34.457Z,102116.69
2023-05-08T07:15:38.909Z,102117.78
2023-05-08T07:20:41.798Z,102120.00
2023-05-08T07:25:46.058Z,102118.50
2023-05-08T07:30:48.917Z,102112.69
2023-05-08T07:35:52.647Z,102119.69
2023-05-08T07:40:57.863Z,102119.56
2023-05-08T07:46:01.314Z,102119.03
2023-05-08T07:51:04.217Z,102121.47
2023-05-08T07:56:09.099Z,102119.44
2023-05-08T08:01:12.176Z,102114.09
2023-05-08T08:06:15.495Z,102117.88
2023-05-08T08:11:19.830Z,102115.69
2023-05-08T08:16:22.728Z,102120.19
2023-05-08T08:21:25.584Z,102120.25
2023-05-08T08:26:29.901Z,102127.22
2023-05-08T08:31:32.789Z,102119.59
2023-05-08T08:36:35.686Z,102117.06
2023-05-08T08:41:40.870Z,102120.38
2023-05-08T08:46:46.404Z,102119.91
2023-05-08T08:51:52.373Z,102112.09
2023-05-08T08:56:57.052Z,102107.41
2023-05-08T09:02:02.860Z,102109.25
2023-05-08T09:07:07.260Z,102102.91
2023-05-08T09:12:11.884Z,102097.25
2023-05-08T09:17:14.747Z,102104.88
2023-05-08T09:22:18.533Z,102108.88
2023-05-08T09:27:23.953Z,102117.56
2023-05-08T09:32:27.358Z,102119.25
2023-05-08T09:37:30.882Z,102111.28
2023-05-08T09:42:40.191Z,102112.63
2023-05-08T09:47:49.415Z,102109.28
2023-05-08T09:52:52.391Z,102110.38
2023-05-08T09:57:58.738Z,102111.00
2023-05-08T10:03:03.695Z,102116.13
2023-05-08T10:08:20.226Z,102107.63
2023-05-08T10:13:26.155Z,102108.16
2023-05-08T10:18:31.018Z,102097.44
2023-05-08T10:23:35.082Z,102103.19
2023-05-08T10:28:44.081Z,102095.25
2023-05-08T10:33:47.460Z,102100.16
2023-05-08T10:38:51.250Z,102098.91
2023-05-08T10:43:55.688Z,102105.22
2023-05-08T10:49:04.158Z,102092.44
2023-05-08T10:54:11.071Z,102088.25
2023-05-08T10:59:20.646Z,102096.81
2023-05-08T11:04:24.518Z,102095.31
2023-05-08T11:09:29.629Z,102094.28
2023-05-08T11:14:34.865Z,102084.94
2023-05-08T11:19:39.087Z,102077.34
2023-05-08T11:24:43.656Z,102081.25
2023-05-08T11:30:22.848Z,102068.31
2023-05-08T11:35:44.024Z,102058.00
2023-05-08T11:40:48.815Z,102051.16
2023-05-08T11:45:53.455Z,102050.38
2023-05-08T11:50:56.709Z,102055.19
2023-05-08T11:56:00.493Z,102043.16
2023-05-08T12:01:04.705Z,102037.22
2023-05-08T12:06:08.625Z,102037.44
2023-05-08T12:11:11.411Z,102036.78
2023-05-08T12:16:15.638Z,102033.16
2023-05-08T12:21:18.661Z,102024.16
2023-05-08T12:26:21.627Z,102009.75
2023-05-08T12:31:25.961Z,102025.44
2023-05-08T12:36:28.861Z,102024.91
2023-05-08T12:41:31.841Z,102006.88
2023-05-08T12:46:36.031Z,102001.75
2023-05-08T12:51:41.124Z,102007.09
2023-05-08T12:56:44.618Z,102008.41
2023-05-08T13:01:52.981Z,102007.06
2023-05-08T13:06:56.667Z,102006.34
2023-05-08T13:12:00.155Z,102009.28
2023-05-08T13:17:04.357Z,102005.66
2023-05-08T13:22:07.249Z,102001.56
2023-05-08T13:27:10.137Z,101994.84
2023-05-08T13:32:14.779Z,101995.34
2023-05-08T13:37:17.808Z,101992.63
2023-05-08T13:42:20.600Z,101987.97
2023-05-08T13:47:24.842Z,101979.94
2023-05-08T13:52:29.152Z,101976.16
2023-05-08T13:57:32.028Z,101976.09
2023-05-08T14:02:37.298Z,101985.81
2023-05-08T14:07:40.426Z,101994.19
2023-05-08T14:12:43.302Z,101997.63
2023-05-08T14:17:48.409Z,101998.84
2023-05-08T14:22:53.988Z,102009.38
2023-05-08T14:27:56.950Z,102013.38
2023-05-08T14:33:01.173Z,102013.91
2023-05-08T14:38:04.468Z,102011.88
2023-05-08T14:43:07.422Z,102017.84
2023-05-08T14:48:11.661Z,102019.84
2023-05-08T14:53:14.680Z,102024.31
2023-05-08T14:58:17.558Z,102031.63
2023-05-08T15:03:21.814Z,102027.06
2023-05-08T15:08:24.730Z,102028.91
2023-05-08T15:13:27.664Z,102026.06
2023-05-08T15:18:32.009Z,102020.31
2023-05-08T15:23:34.834Z,102033.66
2023-05-08T15:28:40.564Z,102032.34
2023-05-08T15:33:45.805Z,102028.03
2023-05-08T15:38:49.641Z,102021.03
2023-05-08T15:43:52.477Z,102024.03
2023-05-08T15:48:56.652Z,102030.88
2023-05-08T15:53:59.511Z,102023.47
2023-05-08T15:59:02.286Z,102019.50
2023-05-08T16:04:06.420Z,102030.75
2023-05-08T16:09:09.240Z,102026.06
2023-05-08T16:14:12.006Z,102023.75
2023-05-08T16:19:16.328Z,102007.84
2023-05-08T16:24:19.086Z,101996.22
2023-05-08T16:29:21.842Z,101983.84
2023-05-08T16:34:25.983Z,101968.56
2023-05-08T16:39:28.805Z,101966.41
2023-05-08T16:44:31.644Z,101970.91
2023-05-08T16:49:35.845Z,101982.09
2023-05-08T16:54:39.507Z,101983.38
2023-05-08T16:59:42.439Z,101978.13
2023-05-08T17:04:47.952Z,101957.38
2023-05-08T17:09:53.088Z,101953.72
2023-05-08T17:14:56.900Z,101965.38
2023-05-08T17:20:01.024Z,101974.22
2023-05-08T17:25:03.879Z,101971.69
2023-05-08T17:30:11.965Z,101960.94
2023-05-08T17:35:18.360Z,101962.34
2023-05-08T17:40:21.270Z,101964.09
2023-05-08T17:45:24.130Z,101970.28
2023-05-08T17:50:28.438Z,101974.91
2023-05-08T17:55:31.757Z,101961.63
2023-05-08T18:00:34.636Z,101958.53
2023-05-08T18:05:39.936Z,101958.63
2023-05-08T18:10:42.744Z,101950.88
2023-05-08T18:15:45.701Z,101946.25
2023-05-08T18:20:50.000Z,101946.75
2023-05-08T18:25:52.896Z,101946.81
2023-05-08T18:30:55.811Z,101934.75
2023-05-08T18:35:59.900Z,101927.94
2023-05-08T18:41:03.225Z,101921.41
2023-05-08T18:46:12.014Z,101955.94
2023-05-08T18:51:16.409Z,101958.81
2023-05-08T18:56:19.652Z,101951.88
2023-05-08T19:01:22.557Z,101939.91
2023-05-08T19:06:26.814Z,101961.41
2023-05-08T19:11:29.619Z,101953.09
2023-05-08T19:16:32.578Z,101963.97
2023-05-08T19:21:37.031Z,101958.63
2023-05-08T19:26:39.756Z,101960.72
2023-05-08T19:31:42.602Z,101962.47
2023-05-08T19:36:46.910Z,101978.41
2023-05-08T19:41:49.823Z,101984.59
2023-05-08T19:46:52.688Z,101982.97
2023-05-08T19:51:58.970Z,101993.13
2023-05-08T19:57:02.025Z,102005.19
2023-05-08T20:02:05.178Z,101995.00
2023-05-08T20:07:10.944Z,101991.75
2023-05-08T20:12:13.723Z,101998.09
2023-05-08T20:17:16.524Z,101986.06
2023-05-08T20:22:20.706Z,101982.66
2023-05-08T20:27:23.617Z,101974.75
2023-05-08T20:32:26.590Z,101978.28
2023-05-08T20:37:30.735Z,101974.94
2023-05-08T20:42:33.549Z,101978.44
2023-05-08T20:47:36.524Z,101980.06
2023-05-08T20:52:42.501Z,101973.03
2023-05-08T20:57:45.439Z,101966.91
2023-05-08T21:02:48.326Z,101966.97
2023-05-08T21:07:55.772Z,101952.31
2023-05-08T21:12:58.640Z,101946.00
2023-05-08T21:18:01.574Z,101932.78
2023-05-08T21:23:05.811Z,101936.31
2023-05-08T21:28:09.527Z,101920.50
2023-05-08T21:33:13.914Z,101916.09
2023-05-08T21:38:18.346Z,101911.66
2023-05-08T21:43:21.135Z,101902.25
2023-05-08T21:48:24.388Z,101897.81
2023-05-08T21:53:28.596Z,101878.44
2023-05-08T21:58:31.455Z,101864.50
2023-05-08T22:03:34.301Z,101840.09
2023-05-08T22:08:38.444Z,101851.69
2023-05-08T22:13:41.193Z,101840.34
2023-05-08T22:18:44.088Z,101832.47
2023-05-08T22:23:48.162Z,101832.59
2023-05-08T22:28:50.914Z,101827.38
2023-05-08T22:33:53.681Z,101820.38
2023-05-08T22:38:57.886Z,101815.22
2023-05-08T22:44:00.721Z,101811.75
2023-05-08T22:49:03.584Z,101794.25
2023-05-08T22:54:08.046Z,101781.16
2023-05-08T22:59:10.941Z,101775.94
2023-05-08T23:04:13.747Z,101752.25
2023-05-08T23:09:17.925Z,101747.00
2023-05-08T23:14:20.779Z,101744.41
2023-05-08T23:19:23.551Z,101737.53
2023-05-08T23:24:27.631Z,101743.59
2023-05-08T23:29:30.340Z,101739.41
2023-05-08T23:34:33.127Z,101740.22
2023-05-08T23:39:41.237Z,101738.44
2023-05-08T23:44:44.218Z,101733.13
2023-05-08T23:49:46.981Z,101729.53
2023-05-08T23:54:51.086Z,101733.94
2023-05-08T23:59:53.909Z,101733.06
